createdAt,value
2017-12-26T00:00:23.246Z,5.97
2017-12-26T00:01:03.820Z,6
2017-12-26T00:01:44.405Z,5.97
2017-12-26T00:02:25.506Z,5.97
2017-12-26T00:03:05.404Z,6.01
2017-12-26T00:03:45.954Z,5.99
2017-12-26T00:04:26.501Z,5.97
2017-12-26T00:05:07.007Z,5.93
2017-12-26T00:05:47.556Z,5.99
2017-12-26T00:06:28.103Z,5.94
2017-12-26T00:07:08.665Z,5.81
2017-12-26T00:07:49.239Z,5.75
2017-12-26T00:08:29.768Z,5.78
2017-12-26T00:09:10.326Z,5.85
2017-12-26T00:09:50.831Z,5.89
2017-12-26T00:10:31.404Z,5.83
2017-12-26T00:11:11.946Z,5.79
2017-12-26T00:11:52.481Z,5.82
2017-12-26T00:12:33.035Z,5.86
2017-12-26T00:13:13.593Z,5.9
2017-12-26T00:13:54.129Z,5.81
2017-12-26T00:14:34.705Z,5.85
2017-12-26T00:15:15.242Z,5.83
2017-12-26T00:15:55.760Z,5.96
2017-12-26T00:16:36.278Z,5.99
2017-12-26T00:17:16.840Z,5.89
2017-12-26T00:17:57.386Z,6.03
2017-12-26T00:18:37.946Z,6.03
2017-12-26T00:19:18.471Z,5.96
2017-12-26T00:19:59.012Z,5.9
2017-12-26T00:20:39.574Z,5.85
2017-12-26T00:21:20.124Z,5.91
2017-12-26T00:22:00.674Z,5.97
2017-12-26T00:22:41.219Z,5.99
2017-12-26T00:23:21.757Z,5.83
2017-12-26T00:24:02.307Z,5.96
2017-12-26T00:24:42.836Z,5.96
2017-12-26T00:25:23.412Z,6.08
2017-12-26T00:26:03.974Z,6.12
2017-12-26T00:26:44.515Z,6.06
2017-12-26T00:27:25.050Z,5.99
2017-12-26T00:28:05.619Z,6.03
2017-12-26T00:28:46.159Z,6.08
2017-12-26T00:29:26.720Z,6.06
2017-12-26T00:30:07.265Z,6.14
2017-12-26T00:30:47.793Z,6.04
2017-12-26T00:31:28.392Z,6.09
2017-12-26T00:32:08.916Z,6.12
2017-12-26T00:32:49.481Z,6.08
2017-12-26T00:33:30.039Z,6.12
2017-12-26T00:34:10.567Z,6.03
2017-12-26T00:34:51.135Z,6.12
2017-12-26T00:35:31.641Z,6.15
2017-12-26T00:36:12.196Z,6.12
2017-12-26T00:36:52.733Z,5.99
2017-12-26T00:37:33.308Z,5.94
2017-12-26T00:38:13.811Z,5.96
2017-12-26T00:38:54.345Z,5.82
2017-12-26T00:39:35.512Z,5.96
2017-12-26T00:40:15.478Z,6
2017-12-26T00:40:56.079Z,6.08
2017-12-26T00:41:36.634Z,6.09
2017-12-26T00:42:17.194Z,6
2017-12-26T00:42:57.725Z,5.86
2017-12-26T00:43:38.237Z,5.83
2017-12-26T00:44:18.785Z,5.76
2017-12-26T00:44:59.313Z,5.78
2017-12-26T00:45:39.885Z,5.81
2017-12-26T00:46:20.407Z,5.79
2017-12-26T00:47:00.938Z,5.78
2017-12-26T00:47:41.460Z,5.85
2017-12-26T00:48:22.013Z,5.93
2017-12-26T00:49:02.545Z,5.83
2017-12-26T00:49:43.130Z,5.89
2017-12-26T00:50:23.709Z,5.86
2017-12-26T00:51:04.267Z,5.94
2017-12-26T00:51:44.807Z,5.93
2017-12-26T00:52:25.359Z,5.96
2017-12-26T00:53:05.903Z,5.91
2017-12-26T00:53:46.440Z,5.94
2017-12-26T00:54:27.001Z,5.86
2017-12-26T00:55:07.551Z,5.89
2017-12-26T00:55:48.106Z,5.86
2017-12-26T00:56:28.646Z,5.97
2017-12-26T00:57:09.190Z,5.99
2017-12-26T00:57:49.750Z,5.93
2017-12-26T00:58:30.308Z,5.91
2017-12-26T00:59:10.843Z,5.9
2017-12-26T00:59:51.397Z,5.85
2017-12-26T01:00:31.915Z,5.82
2017-12-26T01:01:12.429Z,5.83
2017-12-26T01:01:52.980Z,5.82
2017-12-26T01:02:33.518Z,5.83
2017-12-26T01:03:14.033Z,5.76
2017-12-26T01:03:54.584Z,5.91
2017-12-26T01:04:35.124Z,5.79
2017-12-26T01:05:15.745Z,5.81
2017-12-26T01:05:56.275Z,5.91
2017-12-26T01:06:36.815Z,5.79
2017-12-26T01:07:17.413Z,5.86
2017-12-26T01:07:57.932Z,5.86
2017-12-26T01:08:38.490Z,5.86
2017-12-26T01:09:19.065Z,5.83
2017-12-26T01:09:59.590Z,6
2017-12-26T01:10:40.144Z,5.96
2017-12-26T01:11:20.667Z,5.85
2017-12-26T01:12:01.201Z,5.82
2017-12-26T01:12:41.757Z,5.79
2017-12-26T01:13:22.303Z,5.89
2017-12-26T01:14:02.847Z,5.91
2017-12-26T01:14:43.416Z,5.71
2017-12-26T01:15:23.944Z,5.78
2017-12-26T01:16:04.464Z,5.76
2017-12-26T01:16:45.012Z,5.74
2017-12-26T01:17:25.597Z,5.75
2017-12-26T01:18:06.132Z,5.75
2017-12-26T01:18:46.687Z,5.9
2017-12-26T01:19:27.229Z,5.82
2017-12-26T01:20:07.755Z,5.83
2017-12-26T01:20:48.324Z,5.86
2017-12-26T01:21:28.882Z,5.86
2017-12-26T01:22:09.406Z,5.83
2017-12-26T01:22:49.940Z,5.83
2017-12-26T01:23:30.474Z,5.89
2017-12-26T01:24:11.010Z,5.85
2017-12-26T01:24:51.556Z,5.72
2017-12-26T01:25:32.108Z,5.83
2017-12-26T01:26:12.662Z,5.83
2017-12-26T01:26:53.186Z,5.85
2017-12-26T01:27:33.732Z,5.83
2017-12-26T01:28:14.271Z,5.83
2017-12-26T01:28:54.785Z,5.82
2017-12-26T01:29:35.327Z,5.91
2017-12-26T01:30:15.862Z,5.93
2017-12-26T01:30:56.416Z,6.03
2017-12-26T01:31:36.951Z,5.99
2017-12-26T01:32:17.521Z,6
2017-12-26T01:32:58.076Z,5.81
2017-12-26T01:33:38.635Z,5.86
2017-12-26T01:34:19.182Z,5.82
2017-12-26T01:34:59.689Z,5.74
2017-12-26T01:35:40.257Z,5.65
2017-12-26T01:36:20.786Z,5.76
2017-12-26T01:37:01.379Z,5.82
2017-12-26T01:37:41.934Z,5.72
2017-12-26T01:38:22.432Z,5.75
2017-12-26T01:39:02.958Z,5.74
2017-12-26T01:39:43.518Z,5.75
2017-12-26T01:40:24.072Z,5.72
2017-12-26T01:41:04.597Z,5.81
2017-12-26T01:41:45.127Z,5.86
2017-12-26T01:42:25.682Z,5.81
2017-12-26T01:43:06.319Z,5.83
2017-12-26T01:43:46.895Z,5.83
2017-12-26T01:44:27.438Z,5.83
2017-12-26T01:45:07.977Z,5.85
2017-12-26T01:45:48.543Z,5.85
2017-12-26T01:46:29.127Z,5.83
2017-12-26T01:47:09.633Z,5.67
2017-12-26T01:47:50.133Z,5.81
2017-12-26T01:48:30.682Z,5.85
2017-12-26T01:49:11.243Z,5.85
2017-12-26T01:49:51.769Z,5.82
2017-12-26T01:50:32.272Z,5.78
2017-12-26T01:51:12.814Z,5.82
2017-12-26T01:51:53.376Z,5.82
2017-12-26T01:52:33.916Z,5.78
2017-12-26T01:53:14.486Z,5.85
2017-12-26T01:53:55.020Z,5.71
2017-12-26T01:54:35.546Z,5.83
2017-12-26T01:55:16.087Z,5.72
2017-12-26T01:55:56.602Z,5.68
2017-12-26T01:56:37.138Z,5.63
2017-12-26T01:57:17.717Z,5.6
2017-12-26T01:57:58.225Z,5.67
2017-12-26T01:58:38.767Z,5.68
2017-12-26T01:59:19.305Z,5.65
2017-12-26T01:59:59.876Z,5.76
2017-12-26T02:00:40.426Z,5.79
2017-12-26T02:01:20.970Z,5.76
2017-12-26T02:02:01.506Z,5.83
2017-12-26T02:02:42.071Z,5.81
2017-12-26T02:03:22.642Z,5.86
2017-12-26T02:04:03.180Z,5.93
2017-12-26T02:04:43.788Z,5.86
2017-12-26T02:05:24.333Z,5.94
2017-12-26T02:06:04.877Z,5.96
2017-12-26T02:06:45.425Z,5.89
2017-12-26T02:07:25.944Z,5.82
2017-12-26T02:08:06.478Z,5.85
2017-12-26T02:08:46.998Z,5.82
2017-12-26T02:09:27.545Z,5.85
2017-12-26T02:10:08.083Z,5.74
2017-12-26T02:10:48.619Z,5.78
2017-12-26T02:11:29.164Z,5.78
2017-12-26T02:12:09.705Z,5.71
2017-12-26T02:12:50.239Z,5.65
2017-12-26T02:13:30.805Z,5.74
2017-12-26T02:14:11.399Z,5.67
2017-12-26T02:14:51.931Z,5.74
2017-12-26T02:15:32.499Z,5.67
2017-12-26T02:16:13.067Z,5.61
2017-12-26T02:16:53.587Z,5.63
2017-12-26T02:17:34.130Z,5.53
2017-12-26T02:18:14.666Z,5.63
2017-12-26T02:18:55.242Z,5.48
2017-12-26T02:19:35.746Z,5.35
2017-12-26T02:20:16.282Z,5.48
2017-12-26T02:20:56.826Z,5.43
2017-12-26T02:21:37.396Z,5.57
2017-12-26T02:22:17.937Z,5.63
2017-12-26T02:22:58.474Z,5.64
2017-12-26T02:23:38.998Z,5.65
2017-12-26T02:24:19.513Z,5.75
2017-12-26T02:25:00.063Z,5.64
2017-12-26T02:25:40.588Z,5.64
2017-12-26T02:26:21.121Z,5.78
2017-12-26T02:27:01.642Z,5.79
2017-12-26T02:27:42.171Z,5.74
2017-12-26T02:28:22.710Z,5.85
2017-12-26T02:29:03.236Z,5.71
2017-12-26T02:29:43.779Z,5.68
2017-12-26T02:30:24.324Z,5.74
2017-12-26T02:31:04.871Z,5.82
2017-12-26T02:31:45.420Z,5.86
2017-12-26T02:32:25.991Z,5.85
2017-12-26T02:33:06.542Z,5.75
2017-12-26T02:33:47.073Z,5.72
2017-12-26T02:34:27.631Z,5.68
2017-12-26T02:35:08.183Z,5.74
2017-12-26T02:35:48.735Z,5.68
2017-12-26T02:36:29.281Z,5.74
2017-12-26T02:37:09.822Z,5.64
2017-12-26T02:37:50.347Z,5.83
2017-12-26T02:38:30.883Z,5.65
2017-12-26T02:39:11.433Z,5.64
2017-12-26T02:39:51.956Z,5.74
2017-12-26T02:40:32.534Z,5.74
2017-12-26T02:41:13.064Z,5.58
2017-12-26T02:41:53.664Z,5.64
2017-12-26T02:42:34.183Z,5.49
2017-12-26T02:43:14.715Z,5.51
2017-12-26T02:43:55.251Z,5.6
2017-12-26T02:44:35.803Z,5.51
2017-12-26T02:45:16.343Z,5.56
2017-12-26T02:45:56.888Z,5.48
2017-12-26T02:46:37.465Z,5.54
2017-12-26T02:47:17.973Z,5.56
2017-12-26T02:47:58.554Z,5.51
2017-12-26T02:48:39.106Z,5.46
2017-12-26T02:49:19.699Z,5.42
2017-12-26T02:50:00.224Z,5.61
2017-12-26T02:50:40.814Z,5.56
2017-12-26T02:51:21.309Z,5.58
2017-12-26T02:52:01.894Z,5.68
2017-12-26T02:52:42.462Z,5.67
2017-12-26T02:53:23.037Z,5.74
2017-12-26T02:54:03.555Z,5.67
2017-12-26T02:54:44.144Z,5.64
2017-12-26T02:55:24.631Z,5.53
2017-12-26T02:56:05.192Z,5.4
2017-12-26T02:56:45.736Z,5.56
2017-12-26T02:57:26.285Z,5.53
2017-12-26T02:58:06.817Z,5.49
2017-12-26T02:58:47.384Z,5.54
2017-12-26T02:59:27.949Z,5.54
2017-12-26T03:00:08.535Z,5.49
2017-12-26T03:00:49.050Z,5.54
2017-12-26T03:01:29.581Z,5.56
2017-12-26T03:02:10.122Z,5.63
2017-12-26T03:02:50.679Z,5.46
2017-12-26T03:03:31.881Z,5.4
2017-12-26T03:04:12.391Z,5.42
2017-12-26T03:04:52.953Z,5.48
2017-12-26T03:05:33.483Z,5.53
2017-12-26T03:06:14.083Z,5.46
2017-12-26T03:06:54.585Z,5.49
2017-12-26T03:07:35.112Z,5.6
2017-12-26T03:08:15.651Z,5.51
2017-12-26T03:08:56.205Z,5.51
2017-12-26T03:09:36.751Z,5.4
2017-12-26T03:10:17.274Z,5.48
2017-12-26T03:10:57.819Z,5.43
2017-12-26T03:11:38.335Z,5.43
2017-12-26T03:12:18.869Z,5.56
2017-12-26T03:12:59.428Z,5.53
2017-12-26T03:13:39.985Z,5.46
2017-12-26T03:14:20.550Z,5.56
2017-12-26T03:15:01.132Z,5.54
2017-12-26T03:15:41.680Z,5.57
2017-12-26T03:16:22.226Z,5.6
2017-12-26T03:17:02.784Z,5.61
2017-12-26T03:17:43.318Z,5.63
2017-12-26T03:18:23.879Z,5.58
2017-12-26T03:19:04.427Z,5.63
2017-12-26T03:19:44.939Z,5.61
2017-12-26T03:20:25.518Z,5.54
2017-12-26T03:21:06.021Z,5.58
2017-12-26T03:21:46.565Z,5.54
2017-12-26T03:22:27.110Z,5.53
2017-12-26T03:23:07.662Z,5.53
2017-12-26T03:23:48.141Z,5.57
2017-12-26T03:24:28.686Z,5.58
2017-12-26T03:25:09.211Z,5.48
2017-12-26T03:25:49.743Z,5.53
2017-12-26T03:26:30.266Z,5.39
2017-12-26T03:27:10.794Z,5.45
2017-12-26T03:27:51.341Z,5.56
2017-12-26T03:28:31.879Z,5.6
2017-12-26T03:29:12.386Z,5.58
2017-12-26T03:29:52.877Z,5.57
2017-12-26T03:30:33.439Z,5.54
2017-12-26T03:31:14.016Z,5.6
2017-12-26T03:31:54.546Z,5.6
2017-12-26T03:32:35.076Z,5.64
2017-12-26T03:33:15.613Z,5.74
2017-12-26T03:33:56.141Z,5.6
2017-12-26T03:34:36.695Z,5.61
2017-12-26T03:35:17.251Z,5.61
2017-12-26T03:35:57.784Z,5.56
2017-12-26T03:36:38.293Z,5.58
2017-12-26T03:37:18.843Z,5.56
2017-12-26T03:37:59.406Z,5.63
2017-12-26T03:38:39.944Z,5.54
2017-12-26T03:39:20.471Z,5.63
2017-12-26T03:40:01.002Z,5.6
2017-12-26T03:40:41.588Z,5.67
2017-12-26T03:41:22.081Z,5.63
2017-12-26T03:42:02.634Z,5.65
2017-12-26T03:42:43.203Z,5.56
2017-12-26T03:43:23.721Z,5.51
2017-12-26T03:44:04.238Z,5.6
2017-12-26T03:44:44.773Z,5.68
2017-12-26T03:45:25.288Z,5.71
2017-12-26T03:46:05.838Z,5.68
2017-12-26T03:46:46.341Z,5.61
2017-12-26T03:47:26.900Z,5.61
2017-12-26T03:48:07.473Z,5.71
2017-12-26T03:48:48.010Z,5.64
2017-12-26T03:49:28.557Z,5.68
2017-12-26T03:50:09.090Z,5.64
2017-12-26T03:50:49.680Z,5.72
2017-12-26T03:51:30.188Z,5.78
2017-12-26T03:52:10.739Z,5.74
2017-12-26T03:52:51.291Z,5.65
2017-12-26T03:53:31.856Z,5.61
2017-12-26T03:54:12.397Z,5.61
2017-12-26T03:54:52.902Z,5.61
2017-12-26T03:55:33.445Z,5.67
2017-12-26T03:56:13.961Z,5.67
2017-12-26T03:56:54.476Z,5.63
2017-12-26T03:57:35.018Z,5.64
2017-12-26T03:58:15.551Z,5.65
2017-12-26T03:58:56.145Z,5.48
2017-12-26T03:59:36.689Z,5.51
2017-12-26T04:00:17.212Z,5.46
2017-12-26T04:00:57.718Z,5.54
2017-12-26T04:01:38.261Z,5.4
2017-12-26T04:02:18.802Z,5.49
2017-12-26T04:02:59.339Z,5.53
2017-12-26T04:03:39.865Z,5.51
2017-12-26T04:04:20.439Z,5.57
2017-12-26T04:05:00.995Z,5.56
2017-12-26T04:05:41.496Z,5.42
2017-12-26T04:06:22.046Z,5.48
2017-12-26T04:07:02.585Z,5.57
2017-12-26T04:07:43.126Z,5.65
2017-12-26T04:08:23.686Z,5.64
2017-12-26T04:09:04.205Z,5.65
2017-12-26T04:09:44.778Z,5.67
2017-12-26T04:10:25.288Z,5.54
2017-12-26T04:11:05.819Z,5.54
2017-12-26T04:11:46.368Z,5.53
2017-12-26T04:12:26.898Z,5.46
2017-12-26T04:13:07.435Z,5.6
2017-12-26T04:13:47.953Z,5.61
2017-12-26T04:14:28.528Z,5.68
2017-12-26T04:15:09.019Z,5.56
2017-12-26T04:15:49.574Z,5.54
2017-12-26T04:16:30.140Z,5.57
2017-12-26T04:17:10.661Z,5.58
2017-12-26T04:17:51.187Z,5.63
2017-12-26T04:18:31.716Z,5.64
2017-12-26T04:19:12.239Z,5.51
2017-12-26T04:19:52.791Z,5.57
2017-12-26T04:20:33.333Z,5.51
2017-12-26T04:21:13.875Z,5.54
2017-12-26T04:21:54.425Z,5.54
2017-12-26T04:22:34.971Z,5.56
2017-12-26T04:23:15.507Z,5.63
2017-12-26T04:23:56.060Z,5.63
2017-12-26T04:24:36.560Z,5.43
2017-12-26T04:25:17.105Z,5.53
2017-12-26T04:25:57.648Z,5.53
2017-12-26T04:26:38.191Z,5.61
2017-12-26T04:27:18.711Z,5.6
2017-12-26T04:27:59.297Z,5.6
2017-12-26T04:28:39.806Z,5.56
2017-12-26T04:29:20.330Z,5.71
2017-12-26T04:30:00.907Z,5.49
2017-12-26T04:30:41.434Z,5.51
2017-12-26T04:31:21.958Z,5.61
2017-12-26T04:32:02.489Z,5.74
2017-12-26T04:32:43.042Z,5.6
2017-12-26T04:33:23.604Z,5.74
2017-12-26T04:34:04.108Z,5.71
2017-12-26T04:34:44.631Z,5.64
2017-12-26T04:35:25.260Z,5.56
2017-12-26T04:36:05.787Z,5.61
2017-12-26T04:36:46.351Z,5.64
2017-12-26T04:37:26.888Z,5.65
2017-12-26T04:38:07.424Z,5.68
2017-12-26T04:38:47.988Z,5.74
2017-12-26T04:39:28.570Z,5.74
2017-12-26T04:40:09.074Z,5.65
2017-12-26T04:40:49.618Z,5.72
2017-12-26T04:41:30.192Z,5.64
2017-12-26T04:42:10.667Z,5.65
2017-12-26T04:42:51.207Z,5.65
2017-12-26T04:43:31.741Z,5.71
2017-12-26T04:44:12.327Z,5.65
2017-12-26T04:44:52.839Z,5.64
2017-12-26T04:45:33.404Z,5.72
2017-12-26T04:46:13.921Z,5.67
2017-12-26T04:46:55.258Z,5.71
2017-12-26T04:47:35.789Z,5.65
2017-12-26T04:48:16.340Z,5.75
2017-12-26T04:48:56.855Z,5.75
2017-12-26T04:49:37.399Z,5.82
2017-12-26T04:50:17.948Z,5.83
2017-12-26T04:50:58.469Z,5.78
2017-12-26T04:51:39.048Z,5.82
2017-12-26T04:52:19.596Z,5.74
2017-12-26T04:53:00.155Z,5.86
2017-12-26T04:53:40.678Z,5.85
2017-12-26T04:54:21.250Z,5.72
2017-12-26T04:55:01.785Z,5.74
2017-12-26T04:55:42.332Z,5.74
2017-12-26T04:56:22.873Z,5.76
2017-12-26T04:57:03.384Z,5.74
2017-12-26T04:57:43.936Z,5.72
2017-12-26T04:58:24.491Z,5.75
2017-12-26T04:59:05.050Z,5.85
2017-12-26T04:59:45.566Z,5.9
2017-12-26T05:00:26.097Z,5.83
2017-12-26T05:01:06.689Z,5.83
2017-12-26T05:01:47.206Z,5.86
2017-12-26T05:02:27.733Z,5.9
2017-12-26T05:03:08.284Z,5.85
2017-12-26T05:03:48.823Z,5.82
2017-12-26T05:04:29.352Z,5.94
2017-12-26T05:05:09.913Z,5.99
2017-12-26T05:05:50.450Z,5.99
2017-12-26T05:06:30.975Z,6
2017-12-26T05:07:11.514Z,5.97
2017-12-26T05:07:52.052Z,5.93
2017-12-26T05:08:32.580Z,6.08
2017-12-26T05:09:13.136Z,6.15
2017-12-26T05:09:53.666Z,6.09
2017-12-26T05:10:34.214Z,6.08
2017-12-26T05:11:14.735Z,6.03
2017-12-26T05:11:55.320Z,6.01
2017-12-26T05:12:35.856Z,6.09
2017-12-26T05:13:16.376Z,6.18
2017-12-26T05:13:56.930Z,6.03
2017-12-26T05:14:37.446Z,5.99
2017-12-26T05:15:17.989Z,5.89
2017-12-26T05:15:58.545Z,5.94
2017-12-26T05:16:39.038Z,5.94
2017-12-26T05:17:19.596Z,5.94
2017-12-26T05:19:17.796Z,6.17
2017-12-26T05:19:58.344Z,6.01
2017-12-26T05:20:38.883Z,6.03
2017-12-26T05:21:19.429Z,6.06
2017-12-26T05:21:59.993Z,6.03
2017-12-26T05:22:40.512Z,6.09
2017-12-26T05:23:21.036Z,6.12
2017-12-26T05:24:01.589Z,6.12
2017-12-26T05:24:42.165Z,6.12
2017-12-26T05:25:22.644Z,6.17
2017-12-26T05:26:03.160Z,6.21
2017-12-26T05:26:43.699Z,6.17
2017-12-26T05:27:24.230Z,6.21
2017-12-26T05:28:04.772Z,6.19
2017-12-26T05:28:45.311Z,6.25
2017-12-26T05:29:25.816Z,6.28
2017-12-26T05:30:06.367Z,6.21
2017-12-26T05:30:46.894Z,6.28
2017-12-26T05:31:27.422Z,6.27
2017-12-26T05:32:07.944Z,6.28
2017-12-26T05:32:48.472Z,6.3
2017-12-26T05:33:29.024Z,6.36
2017-12-26T05:34:09.569Z,6.28
2017-12-26T05:34:50.118Z,6.31
2017-12-26T05:35:30.638Z,6.28
2017-12-26T05:36:11.235Z,6.33
2017-12-26T05:36:51.734Z,6.38
2017-12-26T05:37:32.267Z,6.25
2017-12-26T05:38:12.843Z,6.28
2017-12-26T05:38:53.368Z,6.34
2017-12-26T05:39:33.888Z,6.28
2017-12-26T05:40:14.428Z,6.36
2017-12-26T05:40:54.976Z,6.3
2017-12-26T05:41:35.521Z,6.34
2017-12-26T05:42:16.032Z,6.28
2017-12-26T05:42:56.543Z,6.25
2017-12-26T05:43:37.098Z,6.3
2017-12-26T05:44:17.656Z,6.27
2017-12-26T05:44:58.128Z,6.31
2017-12-26T05:45:38.658Z,6.31
2017-12-26T05:46:19.266Z,6.22
2017-12-26T05:46:59.729Z,6.21
2017-12-26T05:47:40.240Z,6.28
2017-12-26T05:48:20.803Z,6.25
2017-12-26T05:49:01.299Z,6.27
2017-12-26T05:49:41.848Z,6.25
2017-12-26T05:50:22.364Z,6.31
2017-12-26T05:51:02.915Z,6.27
2017-12-26T05:51:43.448Z,6.34
2017-12-26T05:52:24.008Z,6.3
2017-12-26T05:53:04.535Z,6.31
2017-12-26T05:53:45.069Z,6.38
2017-12-26T05:54:25.624Z,6.36
2017-12-26T05:55:06.181Z,6.38
2017-12-26T05:55:46.733Z,6.4
2017-12-26T05:56:27.281Z,6.25
2017-12-26T05:57:07.821Z,6.34
2017-12-26T05:57:48.357Z,6.33
2017-12-26T05:58:28.886Z,6.28
2017-12-26T05:59:09.408Z,6.31
2017-12-26T05:59:49.974Z,6.25
2017-12-26T06:00:30.527Z,6.38
2017-12-26T06:01:11.076Z,6.27
2017-12-26T06:01:51.597Z,6.34
2017-12-26T06:02:32.144Z,6.28
2017-12-26T06:03:12.701Z,6.36
2017-12-26T06:03:53.283Z,6.28
2017-12-26T06:04:33.814Z,6.3
2017-12-26T06:05:14.342Z,6.15
2017-12-26T06:05:54.884Z,6.28
2017-12-26T06:06:35.476Z,6.3
2017-12-26T06:07:15.964Z,6.12
2017-12-26T06:07:56.511Z,6.19
2017-12-26T06:08:37.068Z,6.19
2017-12-26T06:09:17.610Z,6.14
2017-12-26T06:09:58.138Z,6.21
2017-12-26T06:10:38.717Z,6.12
2017-12-26T06:11:19.222Z,6.19
2017-12-26T06:11:59.783Z,6.18
2017-12-26T06:12:41.083Z,6.27
2017-12-26T06:13:22.498Z,6.21
2017-12-26T06:14:03.122Z,6.3
2017-12-26T06:14:43.632Z,6.22
2017-12-26T06:15:24.216Z,6.27
2017-12-26T06:16:04.735Z,6.22
2017-12-26T06:16:45.255Z,6.25
2017-12-26T06:17:26.771Z,6.25
2017-12-26T06:18:07.288Z,6.22
2017-12-26T06:18:47.868Z,6.18
2017-12-26T06:19:28.398Z,6.18
2017-12-26T06:20:08.938Z,6.22
2017-12-26T06:20:49.481Z,6.33
2017-12-26T06:21:30.037Z,6.15
2017-12-26T06:22:10.593Z,6.21
2017-12-26T06:22:51.102Z,6.18
2017-12-26T06:23:31.645Z,6.31
2017-12-26T06:24:12.218Z,6.22
2017-12-26T06:24:52.815Z,6.3
2017-12-26T06:25:33.300Z,6.27
2017-12-26T06:26:13.822Z,6.27
2017-12-26T06:26:54.360Z,6.22
2017-12-26T06:27:34.874Z,6.3
2017-12-26T06:28:15.414Z,6.28
2017-12-26T06:28:55.977Z,6.27
2017-12-26T06:29:36.527Z,6.31
2017-12-26T06:30:17.054Z,6.34
2017-12-26T06:30:57.605Z,6.3
2017-12-26T06:31:38.125Z,6.43
2017-12-26T06:32:18.660Z,6.38
2017-12-26T06:32:59.180Z,6.43
2017-12-26T06:33:39.724Z,6.43
2017-12-26T06:34:20.260Z,6.4
2017-12-26T06:35:00.762Z,6.43
2017-12-26T06:35:41.322Z,6.41
2017-12-26T06:36:21.855Z,6.41
2017-12-26T06:37:02.401Z,6.44
2017-12-26T06:37:42.925Z,6.44
2017-12-26T06:38:23.505Z,6.43
2017-12-26T06:39:04.048Z,6.44
2017-12-26T06:39:44.601Z,6.54
2017-12-26T06:40:25.160Z,6.56
2017-12-26T06:41:05.705Z,6.48
2017-12-26T06:41:46.266Z,6.55
2017-12-26T06:42:26.814Z,6.61
2017-12-26T06:43:07.296Z,6.59
2017-12-26T06:43:47.830Z,6.56
2017-12-26T06:44:28.360Z,6.56
2017-12-26T06:45:08.918Z,6.67
2017-12-26T06:45:49.476Z,6.67
2017-12-26T06:46:30.023Z,6.66
2017-12-26T06:47:10.558Z,6.66
2017-12-26T06:47:51.103Z,6.69
2017-12-26T06:48:31.654Z,6.64
2017-12-26T06:49:12.228Z,6.71
2017-12-26T06:49:52.733Z,6.76
2017-12-26T06:50:33.287Z,6.73
2017-12-26T06:51:13.840Z,6.67
2017-12-26T06:51:54.390Z,6.64
2017-12-26T06:52:34.979Z,6.74
2017-12-26T06:53:15.510Z,6.64
2017-12-26T06:53:56.053Z,6.73
2017-12-26T06:54:36.620Z,6.77
2017-12-26T06:55:18.001Z,6.64
2017-12-26T06:55:57.655Z,6.73
2017-12-26T06:56:38.202Z,6.67
2017-12-26T06:57:18.686Z,6.71
2017-12-26T06:57:59.214Z,6.59
2017-12-26T06:58:39.786Z,6.66
2017-12-26T06:59:20.326Z,6.67
2017-12-26T07:00:00.895Z,6.55
2017-12-26T07:00:41.380Z,6.64
2017-12-26T07:01:21.972Z,6.62
2017-12-26T07:02:02.444Z,6.58
2017-12-26T07:02:42.974Z,6.59
2017-12-26T07:03:23.513Z,6.59
2017-12-26T07:04:04.050Z,6.64
2017-12-26T07:04:44.586Z,6.61
2017-12-26T07:05:25.124Z,6.66
2017-12-26T07:06:05.665Z,6.49
2017-12-26T07:06:46.210Z,6.51
2017-12-26T07:07:26.789Z,6.49
2017-12-26T07:08:07.302Z,6.52
2017-12-26T07:08:47.857Z,6.54
2017-12-26T07:09:28.401Z,6.52
2017-12-26T07:10:08.933Z,6.49
2017-12-26T07:10:49.504Z,6.48
2017-12-26T07:11:30.019Z,6.52
2017-12-26T07:12:10.571Z,6.48
2017-12-26T07:12:51.080Z,6.4
2017-12-26T07:13:31.618Z,6.48
2017-12-26T07:14:12.157Z,6.54
2017-12-26T07:14:52.703Z,6.55
2017-12-26T07:15:33.263Z,6.58
2017-12-26T07:16:13.811Z,6.62
2017-12-26T07:16:54.349Z,6.66
2017-12-26T07:17:34.915Z,6.7
2017-12-26T07:18:15.454Z,6.71
2017-12-26T07:18:55.966Z,6.85
2017-12-26T07:19:36.498Z,6.85
2017-12-26T07:20:17.054Z,6.87
2017-12-26T07:20:57.586Z,7.02
2017-12-26T07:21:38.123Z,6.99
2017-12-26T07:22:18.699Z,7.03
2017-12-26T07:22:59.268Z,7.15
2017-12-26T07:23:39.773Z,7.24
2017-12-26T07:24:20.342Z,7.2
2017-12-26T07:25:00.849Z,7.25
2017-12-26T07:25:41.387Z,7.4
2017-12-26T07:26:21.939Z,7.39
2017-12-26T07:27:02.528Z,7.4
2017-12-26T07:27:43.067Z,7.48
2017-12-26T07:28:23.629Z,7.48
2017-12-26T07:29:04.168Z,7.55
2017-12-26T07:29:44.713Z,7.52
2017-12-26T07:30:25.246Z,7.68
2017-12-26T07:31:05.763Z,7.71
2017-12-26T07:31:46.269Z,7.72
2017-12-26T07:32:26.812Z,7.75
2017-12-26T07:33:07.381Z,7.8
2017-12-26T07:33:47.903Z,7.93
2017-12-26T07:34:28.488Z,7.85
2017-12-26T07:35:08.998Z,7.92
2017-12-26T07:35:49.560Z,7.9
2017-12-26T07:36:30.062Z,8
2017-12-26T07:37:10.579Z,8.02
2017-12-26T07:37:51.144Z,8.07
2017-12-26T07:38:31.679Z,8.05
2017-12-26T07:39:12.242Z,8.08
2017-12-26T07:39:52.766Z,8.08
2017-12-26T07:40:33.304Z,8.11
2017-12-26T07:41:13.833Z,8.19
2017-12-26T07:41:54.363Z,8.18
2017-12-26T07:42:34.917Z,8.1
2017-12-26T07:43:15.441Z,8.19
2017-12-26T07:43:56.005Z,8.2
2017-12-26T07:44:36.530Z,8.22
2017-12-26T07:45:17.079Z,8.23
2017-12-26T07:45:57.611Z,8.28
2017-12-26T07:46:38.136Z,8.33
2017-12-26T07:47:18.679Z,8.29
2017-12-26T07:47:59.169Z,8.44
2017-12-26T07:48:39.723Z,8.29
2017-12-26T07:49:20.262Z,8.38
2017-12-26T07:50:00.822Z,8.38
2017-12-26T07:50:41.355Z,8.4
2017-12-26T07:51:21.854Z,8.41
2017-12-26T07:52:02.382Z,8.4
2017-12-26T07:52:42.923Z,8.4
2017-12-26T07:53:23.458Z,8.37
2017-12-26T07:54:03.975Z,8.4
2017-12-26T07:54:44.503Z,8.43
2017-12-26T07:55:25.044Z,8.45
2017-12-26T07:56:05.549Z,8.44
2017-12-26T07:56:46.121Z,8.5
2017-12-26T07:57:26.754Z,8.48
2017-12-26T07:58:07.286Z,8.48
2017-12-26T07:58:47.821Z,8.5
2017-12-26T07:59:29.018Z,8.5
2017-12-26T08:00:08.888Z,8.59
2017-12-26T08:00:49.417Z,8.58
2017-12-26T08:01:29.951Z,8.65
2017-12-26T08:02:10.507Z,8.58
2017-12-26T08:02:51.034Z,8.66
2017-12-26T08:03:31.617Z,8.62
2017-12-26T08:04:12.163Z,8.7
2017-12-26T08:04:52.687Z,8.73
2017-12-26T08:05:33.204Z,8.7
2017-12-26T08:06:13.742Z,8.7
2017-12-26T08:06:54.300Z,8.74
2017-12-26T08:07:34.835Z,8.68
2017-12-26T08:08:15.396Z,8.74
2017-12-26T08:08:55.894Z,8.63
2017-12-26T08:09:36.426Z,8.71
2017-12-26T08:10:16.996Z,8.76
2017-12-26T08:10:57.539Z,8.77
2017-12-26T08:11:38.079Z,8.77
2017-12-26T08:12:18.592Z,8.76
2017-12-26T08:12:59.144Z,8.8
2017-12-26T08:13:39.674Z,8.84
2017-12-26T08:14:20.199Z,8.77
2017-12-26T08:15:00.707Z,8.86
2017-12-26T08:15:41.262Z,8.81
2017-12-26T08:16:21.835Z,8.91
2017-12-26T08:17:02.358Z,8.94
2017-12-26T08:17:42.914Z,8.87
2017-12-26T08:18:23.464Z,8.98
2017-12-26T08:19:04.000Z,9.04
2017-12-26T08:19:44.552Z,9.14
2017-12-26T08:20:25.042Z,9.17
2017-12-26T08:21:05.559Z,9.31
2017-12-26T08:21:46.092Z,9.29
2017-12-26T08:22:26.624Z,9.32
2017-12-26T08:23:07.191Z,9.38
2017-12-26T08:23:47.747Z,9.38
2017-12-26T08:24:28.292Z,9.51
2017-12-26T08:25:08.850Z,9.5
2017-12-26T08:25:49.392Z,9.58
2017-12-26T08:26:29.955Z,9.61
2017-12-26T08:27:10.461Z,9.65
2017-12-26T08:27:51.024Z,9.71
2017-12-26T08:28:31.536Z,9.69
2017-12-26T08:29:12.094Z,9.74
2017-12-26T08:29:52.666Z,9.75
2017-12-26T08:30:33.173Z,9.74
2017-12-26T08:31:13.683Z,9.86
2017-12-26T08:31:54.268Z,9.89
2017-12-26T08:32:34.823Z,9.86
2017-12-26T08:33:15.345Z,10.01
2017-12-26T08:33:55.886Z,10.02
2017-12-26T08:34:36.429Z,10.05
2017-12-26T08:35:16.995Z,10.18
2017-12-26T08:35:57.534Z,10.23
2017-12-26T08:36:38.092Z,10.32
2017-12-26T08:37:18.642Z,10.34
2017-12-26T08:37:59.205Z,10.33
2017-12-26T08:38:39.723Z,10.44
2017-12-26T08:39:20.269Z,10.51
2017-12-26T08:40:00.843Z,10.51
2017-12-26T08:40:41.345Z,10.53
2017-12-26T08:41:21.898Z,10.51
2017-12-26T08:42:02.451Z,10.51
2017-12-26T08:42:42.996Z,10.59
2017-12-26T08:43:23.515Z,10.59
2017-12-26T08:44:04.058Z,10.6
2017-12-26T08:44:44.626Z,10.64
2017-12-26T08:45:25.168Z,10.59
2017-12-26T08:46:05.748Z,10.66
2017-12-26T08:46:46.297Z,10.71
2017-12-26T08:47:26.830Z,10.78
2017-12-26T08:48:07.374Z,10.81
2017-12-26T08:48:47.935Z,10.81
2017-12-26T08:49:28.477Z,10.82
2017-12-26T08:50:09.060Z,10.79
2017-12-26T08:50:49.621Z,10.84
2017-12-26T08:51:30.139Z,10.94
2017-12-26T08:52:10.710Z,10.92
2017-12-26T08:52:51.229Z,10.91
2017-12-26T08:53:31.780Z,10.92
2017-12-26T08:54:12.368Z,10.99
2017-12-26T08:54:52.954Z,10.99
2017-12-26T08:55:33.481Z,11.02
2017-12-26T08:56:14.017Z,11.04
2017-12-26T08:56:54.572Z,11.09
2017-12-26T08:57:35.094Z,11.07
2017-12-26T08:58:15.660Z,11.1
2017-12-26T08:58:56.166Z,11.14
2017-12-26T08:59:36.717Z,11.04
2017-12-26T09:00:17.272Z,11.17
2017-12-26T09:00:57.822Z,11.32
2017-12-26T09:01:38.336Z,11.28